Time;durP1;ratioP1;P1;durP2;ratioP2;P2;SDS_P1;SDS_P2;PMS_P1;PMS_P2;Temp;Humidity;BMP_temperature;BMP_pressure;BME280_temperature;BME280_humidity;BME280_pressure;Samples;Min_cycle;Max_cycle;Signal;HPM_P1;HPM_P2
2022/06/07 00:02:30;;;;;;;8.37;5.60;;;12.90;1.00;;;;;;5032865;28;20464;-61
2022/06/07 00:04:58;;;;;;;5.37;4.87;;;12.90;1.00;;;;;;5018652;28;20474;-61
2022/06/07 00:07:27;;;;;;;7.73;5.40;;;12.80;1.00;;;;;;5018877;28;20471;-61
2022/06/07 00:09:54;;;;;;;5.70;4.53;;;12.80;1.00;;;;;;5017706;28;20464;-61
2022/06/07 00:12:21;;;;;;;8.00;5.67;;;12.80;1.00;;;;;;5030493;28;20463;-61
2022/06/07 00:14:50;;;;;;;6.30;5.23;;;12.80;1.00;;;;;;5032972;28;20472;-61
2022/06/07 00:17:17;;;;;;;5.33;4.67;;;12.70;1.00;;;;;;5036492;28;20472;-61
2022/06/07 00:19:44;;;;;;;6.40;5.33;;;12.60;1.00;;;;;;5029852;28;20472;-62
2022/06/07 00:22:12;;;;;;;6.63;5.47;;;12.60;1.00;;;;;;5038729;28;20458;-62
2022/06/07 00:24:39;;;;;;;5.70;5.30;;;12.50;1.00;;;;;;5032909;28;20464;-61
2022/06/07 00:27:07;;;;;;;6.93;6.33;;;12.50;1.00;;;;;;5016703;28;20594;-62
2022/06/07 00:29:35;;;;;;;6.57;5.97;;;12.60;1.00;;;;;;5018571;28;20468;-61
2022/06/07 00:32:08;;;;;;;7.00;5.67;;;12.50;1.00;;;;;;5019729;28;20494;-61
2022/06/07 00:34:37;;;;;;;8.17;5.50;;;12.50;1.00;;;;;;5020343;28;21062;-61
2022/06/07 00:37:04;;;;;;;6.37;5.00;;;12.60;1.00;;;;;;5023553;28;20529;-61
2022/06/07 00:39:33;;;;;;;7.67;5.53;;;12.70;1.00;;;;;;5038624;28;20498;-62
2022/06/07 00:42:01;;;;;;;5.90;5.40;;;12.70;1.00;;;;;;5023225;28;20467;-62
2022/06/07 00:44:36;;;;;;;7.97;5.60;;;12.80;1.00;;;;;;5017891;28;20468;-61
2022/06/07 00:47:09;;;;;;;6.53;5.20;;;12.80;1.00;;;;;;5025997;28;20972;-61
2022/06/07 00:49:44;;;;;;;6.27;5.27;;;12.80;1.00;;;;;;5018292;28;20813;-62
2022/06/07 00:52:13;;;;;;;7.57;5.27;;;12.80;1.00;;;;;;5017731;28;20467;-62
2022/06/07 00:54:41;;;;;;;6.73;5.43;;;12.80;1.00;;;;;;5030251;28;20463;-61
2022/06/07 00:57:11;;;;;;;9.40;5.10;;;12.70;1.00;;;;;;5029156;28;20542;-61
2022/06/07 00:59:38;;;;;;;8.63;4.90;;;12.70;1.00;;;;;;5036498;28;20467;-62
2022/06/07 01:02:07;;;;;;;6.67;4.80;;;12.70;1.00;;;;;;5024419;28;20530;-62
2022/06/07 01:04:36;;;;;;;6.00;5.00;;;12.80;1.00;;;;;;5018160;28;20464;-61
2022/06/07 01:12:34;;;;;;;5.50;5.10;;;12.60;1.00;;;;;;5024419;28;20506;-62
2022/06/07 01:15:01;;;;;;;5.30;4.80;;;12.40;1.00;;;;;;5037619;28;20474;-62
2022/06/07 01:17:29;;;;;;;6.40;5.50;;;12.40;1.00;;;;;;5035522;28;20786;-62
2022/06/07 01:19:57;;;;;;;9.77;5.17;;;12.30;1.00;;;;;;5035794;28;20774;-62
2022/06/07 01:22:25;;;;;;;7.47;4.70;;;12.30;1.00;;;;;;5032016;28;20903;-62
2022/06/07 01:24:54;;;;;;;5.90;4.90;;;12.30;1.00;;;;;;5017832;28;20438;-62
2022/06/07 01:27:24;;;;;;;7.23;4.83;;;12.30;1.00;;;;;;5033174;28;20471;-61
2022/06/07 01:29:51;;;;;;;5.20;4.70;;;12.30;1.00;;;;;;5017583;28;20468;-62
2022/06/07 01:32:21;;;;;;;5.30;4.80;;;12.40;1.00;;;;;;5017446;28;20542;-62
2022/06/07 01:34:48;;;;;;;5.57;5.07;;;12.30;1.00;;;;;;5026589;28;20491;-62
2022/06/07 01:37:34;;;;;;;6.17;5.57;;;12.30;1.00;;;;;;5037675;28;20954;-61
2022/06/07 01:42:50;;;;;;;5.70;5.00;;;12.30;1.00;;;;;;5019322;28;20459;-62
2022/06/07 01:45:18;;;;;;;5.63;5.13;;;12.30;1.00;;;;;;5016391;28;20811;-62
2022/06/07 01:47:45;;;;;;;6.87;5.50;;;12.40;1.00;;;;;;5021125;28;20468;-62
2022/06/07 01:50:15;;;;;;;9.67;5.30;;;12.40;1.00;;;;;;5028093;28;20446;-62
2022/06/07 01:52:45;;;;;;;8.93;5.20;;;12.40;1.00;;;;;;5037407;28;20459;-62
2022/06/07 01:55:13;;;;;;;5.67;4.80;;;12.40;1.00;;;;;;5018162;28;20471;-61
2022/06/07 01:57:40;;;;;;;5.50;5.00;;;12.50;1.00;;;;;;5020598;28;20601;-62
2022/06/07 02:00:08;;;;;;;8.13;4.87;;;12.50;1.00;;;;;;5026774;28;20472;-62
2022/06/07 02:02:35;;;;;;;6.80;4.70;;;12.50;1.00;;;;;;5017793;28;20522;-62
2022/06/07 02:05:03;;;;;;;7.40;5.40;;;12.40;1.00;;;;;;5017008;28;20464;-62
2022/06/07 02:07:31;;;;;;;6.20;4.70;;;12.50;1.00;;;;;;5031038;28;20475;-62
2022/06/07 02:10:00;;;;;;;5.40;4.40;;;12.50;1.00;;;;;;5029666;28;20464;-61
2022/06/07 02:12:32;;;;;;;5.47;4.97;;;12.40;1.00;;;;;;5016209;28;20449;-62
2022/06/07 02:15:00;;;;;;;7.03;5.60;;;12.40;1.00;;;;;;5024961;28;20757;-62
2022/06/07 02:17:31;;;;;;;6.00;5.40;;;12.50;1.00;;;;;;5036862;28;20561;-62
2022/06/07 02:20:01;;;;;;;6.33;5.27;;;12.50;1.00;;;;;;5034816;28;20442;-62
2022/06/07 02:22:28;;;;;;;6.93;4.80;;;12.50;1.00;;;;;;5030836;28;20467;-62
2022/06/07 02:24:55;;;;;;;9.80;5.50;;;12.50;1.00;;;;;;5031252;28;20470;-61
2022/06/07 02:27:24;;;;;;;6.40;4.93;;;12.50;1.00;;;;;;5036613;28;20471;-60
2022/06/07 02:29:56;;;;;;;5.60;5.03;;;12.50;1.00;;;;;;5036279;28;20463;-61
2022/06/07 02:32:27;;;;;;;9.07;4.83;;;12.50;1.00;;;;;;5019498;28;20467;-61
2022/06/07 02:34:57;;;;;;;5.00;4.60;;;12.40;1.00;;;;;;5028566;28;20482;-61
2022/06/07 02:37:25;;;;;;;6.30;5.70;;;12.40;1.00;;;;;;5001450;28;20541;-61
2022/06/07 02:39:54;;;;;;;6.20;5.30;;;12.40;1.00;;;;;;5035056;28;20568;-60
2022/06/07 02:42:23;;;;;;;7.60;5.13;;;12.30;1.00;;;;;;5022403;28;20465;-61
2022/06/07 02:44:57;;;;;;;9.83;4.60;;;12.30;1.00;;;;;;5023330;28;20905;-62
2022/06/07 02:47:24;;;;;;;8.20;5.77;;;12.30;1.00;;;;;;5021067;28;20909;-61
2022/06/07 02:49:52;;;;;;;5.60;5.10;;;12.30;1.00;;;;;;5028894;28;20433;-61
2022/06/07 02:52:19;;;;;;;6.27;5.00;;;12.30;1.00;;;;;;5030910;28;20546;-62
2022/06/07 02:54:46;;;;;;;5.90;4.50;;;12.30;1.00;;;;;;5033282;28;20469;-62
2022/06/07 02:57:14;;;;;;;7.03;5.10;;;12.40;1.00;;;;;;5026625;28;20487;-62
2022/06/07 02:59:43;;;;;;;7.27;5.50;;;12.40;1.00;;;;;;5038797;28;20940;-61
2022/06/07 03:02:12;;;;;;;5.70;4.70;;;12.40;1.00;;;;;;5040140;28;20763;-61
2022/06/07 03:04:39;;;;;;;7.97;5.27;;;12.40;1.00;;;;;;5037123;28;20467;-61
2022/06/07 03:07:07;;;;;;;6.30;4.87;;;12.50;1.00;;;;;;5019609;28;20476;-62
2022/06/07 03:09:34;;;;;;;6.33;5.00;;;12.40;1.00;;;;;;5028214;28;20463;-61
2022/06/07 03:12:02;;;;;;;7.97;4.37;;;12.40;1.00;;;;;;5026408;28;20464;-61
2022/06/07 03:14:29;;;;;;;5.77;5.17;;;12.40;1.00;;;;;;5034037;28;20471;-61
2022/06/07 03:16:56;;;;;;;6.53;5.20;;;12.40;1.00;;;;;;5040154;28;20488;-61
2022/06/07 03:19:28;;;;;;;4.83;4.43;;;12.40;1.00;;;;;;5038767;28;20499;-61
2022/06/07 03:21:58;;;;;;;7.73;5.03;;;12.30;1.00;;;;;;5039922;28;20826;-61
2022/06/07 03:24:26;;;;;;;6.27;4.73;;;12.20;1.00;;;;;;5033597;28;20463;-62
2022/06/07 03:26:56;;;;;;;5.53;4.80;;;12.10;1.00;;;;;;5039375;28;20505;-60
2022/06/07 03:29:26;;;;;;;4.77;4.27;;;12.10;1.00;;;;;;5034076;28;20467;-62
2022/06/07 03:31:53;;;;;;;5.50;5.00;;;12.10;1.00;;;;;;5039733;28;20470;-61
2022/06/07 03:34:23;;;;;;;4.90;4.50;;;12.00;1.00;;;;;;5033284;28;20459;-62
2022/06/07 03:36:53;;;;;;;7.70;5.47;;;12.00;1.00;;;;;;5021472;28;20464;-61
2022/06/07 03:39:20;;;;;;;6.87;4.83;;;12.00;1.00;;;;;;5028268;28;20492;-61
2022/06/07 03:41:47;;;;;;;4.93;4.43;;;12.00;1.00;;;;;;5030157;28;20473;-62
2022/06/07 03:44:14;;;;;;;6.23;4.90;;;12.10;1.00;;;;;;5037865;28;20935;-61
2022/06/07 03:46:44;;;;;;;8.53;4.73;;;12.10;1.00;;;;;;5034809;28;20467;-61
2022/06/07 03:49:14;;;;;;;5.80;4.90;;;12.10;1.00;;;;;;5036783;28;20484;-61
2022/06/07 03:51:41;;;;;;;7.90;5.03;;;12.20;1.00;;;;;;5038323;28;20501;-60
2022/06/07 03:54:13;;;;;;;6.03;5.20;;;12.20;1.00;;;;;;5039026;28;20471;-62
2022/06/07 03:56:40;;;;;;;6.20;4.60;;;12.20;1.00;;;;;;5021402;28;20468;-61
2022/06/07 03:59:07;;;;;;;6.93;4.60;;;12.20;1.00;;;;;;5019183;28;20503;-61
2022/06/07 04:01:35;;;;;;;6.10;4.23;;;12.10;1.00;;;;;;5018628;28;20463;-60
2022/06/07 04:04:09;;;;;;;5.50;4.97;;;12.20;1.00;;;;;;5018298;28;20463;-61
2022/06/07 04:06:40;;;;;;;5.53;4.40;;;12.10;1.00;;;;;;5018204;28;20562;-60
2022/06/07 04:09:07;;;;;;;6.70;4.50;;;12.20;1.00;;;;;;5019404;28;20461;-62
2022/06/07 04:11:35;;;;;;;6.43;4.63;;;12.20;1.00;;;;;;5018969;28;20551;-61
2022/06/07 04:14:02;;;;;;;7.90;5.30;;;12.30;1.00;;;;;;5018849;28;20894;-61
2022/06/07 04:16:31;;;;;;;7.03;4.27;;;12.30;1.00;;;;;;5016793;28;20530;-61
2022/06/07 04:18:58;;;;;;;8.03;5.30;;;12.30;1.00;;;;;;5017742;28;20495;-61
2022/06/07 04:21:25;;;;;;;6.40;4.70;;;12.30;1.00;;;;;;5018326;28;20523;-61
2022/06/07 04:23:54;;;;;;;6.07;4.27;;;12.40;1.00;;;;;;5017629;28;20468;-61
2022/06/07 04:26:23;;;;;;;5.87;4.27;;;12.40;1.00;;;;;;5018411;28;20514;-61
2022/06/07 04:28:56;;;;;;;5.77;4.63;;;12.40;1.00;;;;;;5018529;28;20470;-61
2022/06/07 04:31:26;;;;;;;7.00;4.90;;;12.40;1.00;;;;;;5017374;28;20777;-62
2022/06/07 04:33:57;;;;;;;5.73;3.80;;;12.50;1.00;;;;;;5017832;28;20523;-62
2022/06/07 04:36:25;;;;;;;8.10;4.70;;;12.50;1.00;;;;;;5018462;28;20464;-62
2022/06/07 04:38:54;;;;;;;5.03;3.90;;;12.60;1.00;;;;;;5017138;28;20955;-62
2022/06/07 04:41:25;;;;;;;5.20;4.10;;;12.60;1.00;;;;;;5016856;28;20447;-62
2022/06/07 04:43:57;;;;;;;8.83;4.20;;;12.70;1.00;;;;;;5017214;28;20872;-61
2022/06/07 04:46:28;;;;;;;6.97;3.80;;;12.70;1.00;;;;;;5016115;28;20940;-62
2022/06/07 04:48:56;;;;;;;10.20;4.10;;;12.80;1.00;;;;;;5017190;28;20884;-62
2022/06/07 04:51:27;;;;;;;6.73;4.20;;;12.80;1.00;;;;;;5016433;28;20526;-61
2022/06/07 04:53:57;;;;;;;5.90;4.17;;;12.90;1.00;;;;;;5016267;28;20533;-62
2022/06/07 04:56:27;;;;;;;8.47;4.17;;;13.00;1.00;;;;;;5014017;28;20776;-60
2022/06/07 04:58:57;;;;;;;4.33;3.43;;;13.00;1.00;;;;;;5015735;28;20495;-60
2022/06/07 05:01:26;;;;;;;5.23;3.97;;;13.10;99.90;;;;;;5016115;28;20622;-62
2022/06/07 05:03:54;;;;;;;7.73;3.73;;;13.20;99.90;;;;;;5016376;28;20467;-61
2022/06/07 05:06:25;;;;;;;5.70;3.67;;;13.30;99.90;;;;;;5014985;28;20476;-63
2022/06/07 05:08:56;;;;;;;5.43;3.93;;;13.40;99.90;;;;;;5014845;28;20486;-62
2022/06/07 05:11:26;;;;;;;4.63;3.93;;;13.50;99.90;;;;;;5015373;28;20558;-62
2022/06/07 05:13:55;;;;;;;6.07;4.07;;;13.60;99.90;;;;;;5005858;28;20447;-60
2022/06/07 05:16:25;;;;;;;6.47;3.40;;;13.60;99.90;;;;;;5011679;28;20478;-63
2022/06/07 05:18:55;;;;;;;5.40;3.80;;;13.80;99.90;;;;;;5014562;28;20498;-62
2022/06/07 05:21:26;;;;;;;5.43;3.27;;;14.00;99.90;;;;;;5016770;28;20490;-62
2022/06/07 05:23:54;;;;;;;3.33;3.03;;;14.10;99.90;;;;;;5016433;28;20471;-63
2022/06/07 05:26:26;;;;;;;4.67;3.50;;;14.40;99.90;;;;;;5016526;28;20499;-63
2022/06/07 05:28:55;;;;;;;3.60;2.77;;;14.60;99.90;;;;;;5014883;28;20472;-62
2022/06/07 05:31:24;;;;;;;5.00;4.10;;;14.70;99.90;;;;;;5015925;28;20515;-62
2022/06/07 05:33:53;;;;;;;7.10;3.83;;;15.00;99.90;;;;;;5018148;28;20961;-63
2022/06/07 05:36:21;;;;;;;5.17;3.73;;;15.10;99.90;;;;;;5017255;28;20471;-63
2022/06/07 05:38:48;;;;;;;6.33;3.23;;;15.20;99.90;;;;;;5016836;28;20491;-61
2022/06/07 05:41:19;;;;;;;5.80;3.60;;;15.30;99.90;;;;;;5010368;28;20893;-62
2022/06/07 05:43:46;;;;;;;4.40;3.27;;;15.30;99.90;;;;;;5015276;28;20467;-62
2022/06/07 05:46:18;;;;;;;5.93;3.60;;;15.30;99.90;;;;;;5015983;28;20894;-62
2022/06/07 05:48:45;;;;;;;4.63;3.60;;;15.30;99.90;;;;;;5015501;28;20566;-61
2022/06/07 05:51:15;;;;;;;6.53;3.50;;;15.30;99.90;;;;;;5015324;28;20522;-62
2022/06/07 05:53:47;;;;;;;6.00;3.50;;;15.30;99.90;;;;;;5015556;28;20456;-61
2022/06/07 05:56:15;;;;;;;4.37;3.27;;;15.40;99.90;;;;;;5015738;28;20846;-62
2022/06/07 05:58:48;;;;;;;3.60;3.30;;;15.30;99.90;;;;;;5015827;28;20886;-61
2022/06/07 06:01:16;;;;;;;3.67;3.07;;;15.30;99.90;;;;;;5016498;28;20463;-62
2022/06/07 06:03:44;;;;;;;3.10;2.80;;;15.50;99.90;;;;;;5016000;28;20541;-61
2022/06/07 06:06:12;;;;;;;5.40;3.30;;;15.50;99.90;;;;;;5015813;28;20905;-61
2022/06/07 06:11:27;;;;;;;4.70;3.50;;;15.50;99.90;;;;;;5014354;28;20443;-62
2022/06/07 06:13:55;;;;;;;3.60;3.03;;;15.70;99.90;;;;;;5015975;28;20431;-61
2022/06/07 06:16:24;;;;;;;4.73;3.20;;;15.80;99.90;;;;;;5016481;28;20538;-61
2022/06/07 06:18:55;;;;;;;4.00;2.80;;;15.90;99.90;;;;;;5015596;28;20456;-59
2022/06/07 06:21:32;;;;;;;4.13;2.90;;;16.00;99.90;;;;;;5015439;28;20461;-62
2022/06/07 06:23:59;;;;;;;6.60;3.07;;;16.10;99.90;;;;;;5014743;28;20459;-62
2022/06/07 06:26:27;;;;;;;4.80;3.07;;;16.10;99.90;;;;;;5015036;28;20464;-63
2022/06/07 06:28:55;;;;;;;5.30;3.30;;;16.10;99.90;;;;;;5016164;28;20468;-62
2022/06/07 06:31:25;;;;;;;3.90;2.83;;;16.10;99.90;;;;;;5015615;28;20809;-62
2022/06/07 06:33:54;;;;;;;4.53;3.03;;;16.30;99.90;;;;;;5015071;28;20994;-62
2022/06/07 06:36:23;;;;;;;3.87;2.97;;;16.90;99.90;;;;;;5016005;28;20460;-62
2022/06/07 06:38:51;;;;;;;3.40;3.07;;;17.40;99.90;;;;;;5016112;28;20464;-62
2022/06/07 06:41:23;;;;;;;3.47;3.17;;;17.70;99.90;;;;;;5015831;28;20468;-61
2022/06/07 06:43:51;;;;;;;3.17;2.80;;;17.90;99.90;;;;;;5016040;28;20464;-62
2022/06/07 06:46:20;;;;;;;3.10;2.63;;;18.10;99.90;;;;;;5015851;28;20468;-63
2022/06/07 06:48:49;;;;;;;4.27;2.50;;;18.30;99.90;;;;;;5013889;28;20471;-61
2022/06/07 06:51:19;;;;;;;3.93;2.90;;;18.30;99.90;;;;;;5006981;28;20468;-63
2022/06/07 06:53:47;;;;;;;2.97;2.67;;;18.40;99.90;;;;;;5013265;28;20459;-62
2022/06/07 06:56:18;;;;;;;3.23;2.90;;;18.10;99.90;;;;;;5012595;28;20467;-60
2022/06/07 06:58:45;;;;;;;3.07;2.77;;;17.80;99.90;;;;;;5029113;28;20467;-61
2022/06/07 07:01:15;;;;;;;4.40;3.33;;;17.90;99.90;;;;;;5022051;28;20494;-63
2022/06/07 07:03:43;;;;;;;3.17;2.67;;;18.70;99.90;;;;;;5014667;28;21347;-63
2022/06/07 07:06:13;;;;;;;3.87;2.53;;;19.10;99.90;;;;;;5016744;28;20563;-61
2022/06/07 07:08:42;;;;;;;3.90;2.70;;;19.20;99.90;;;;;;5017567;28;20915;-62
2022/06/07 07:11:14;;;;;;;3.10;2.50;;;19.50;99.90;;;;;;5029875;28;20880;-63
2022/06/07 07:13:42;;;;;;;3.27;2.77;;;19.80;99.90;;;;;;5030334;28;20490;-62
2022/06/07 07:16:13;;;;;;;4.40;2.50;;;20.00;99.90;;;;;;5029683;28;20540;-63
2022/06/07 07:18:44;;;;;;;2.93;2.53;;;20.50;99.90;;;;;;5032687;28;20487;-65
2022/06/07 07:21:15;;;;;;;3.83;2.50;;;20.40;99.90;;;;;;5038405;28;20494;-63
2022/06/07 07:23:42;;;;;;;5.00;2.90;;;20.10;99.90;;;;;;5020766;28;20502;-63
2022/06/07 07:26:12;;;;;;;4.07;2.73;;;19.80;99.90;;;;;;5034146;28;20467;-61
2022/06/07 07:28:41;;;;;;;6.37;2.80;;;20.00;99.90;;;;;;5038178;28;20561;-62
2022/06/07 07:31:15;;;;;;;7.87;2.83;;;20.30;99.90;;;;;;5039218;28;20463;-60
2022/06/07 07:33:42;;;;;;;4.00;3.07;;;19.70;99.90;;;;;;5024694;28;20470;-63
2022/06/07 07:36:10;;;;;;;4.70;2.43;;;19.50;99.90;;;;;;5025159;28;20975;-62
2022/06/07 07:38:41;;;;;;;3.47;2.50;;;19.10;99.90;;;;;;5020318;28;20487;-61
2022/06/07 07:41:19;;;;;;;3.10;2.87;;;18.70;99.90;;;;;;5036904;28;20499;-63
2022/06/07 07:43:46;;;;;;;3.67;2.80;;;18.40;99.90;;;;;;5021309;28;20518;-63
2022/06/07 07:46:18;;;;;;;4.87;2.87;;;18.40;99.90;;;;;;5028937;28;20923;-63
2022/06/07 07:48:46;;;;;;;3.13;2.27;;;18.50;99.90;;;;;;5025787;28;20471;-63
2022/06/07 07:51:20;;;;;;;6.63;2.70;;;18.60;99.90;;;;;;5037501;28;20464;-62
2022/06/07 07:53:49;;;;;;;4.67;2.70;;;18.70;99.90;;;;;;5021830;28;20466;-60
2022/06/07 07:56:16;;;;;;;3.47;2.77;;;19.20;99.90;;;;;;5038223;28;20521;-63
2022/06/07 07:58:44;;;;;;;4.80;2.43;;;20.10;99.90;;;;;;5030565;28;20467;-63
2022/06/07 08:01:16;;;;;;;3.50;2.60;;;20.20;99.90;;;;;;5030698;28;20585;-62
2022/06/07 08:03:44;;;;;;;2.80;2.33;;;20.10;99.90;;;;;;5004986;28;20467;-60
2022/06/07 08:06:15;;;;;;;3.60;2.37;;;19.50;99.90;;;;;;5022822;28;20464;-63
2022/06/07 08:08:45;;;;;;;3.20;3.00;;;19.10;99.90;;;;;;5036665;28;20593;-62
2022/06/07 08:11:21;;;;;;;3.57;2.97;;;18.80;99.90;;;;;;5022530;28;20494;-62
2022/06/07 08:13:50;;;;;;;3.07;2.43;;;18.70;99.90;;;;;;5025680;28;20474;-63
2022/06/07 08:16:20;;;;;;;4.37;2.87;;;18.40;99.90;;;;;;5029813;28;20529;-62
2022/06/07 08:18:48;;;;;;;4.27;3.10;;;18.20;99.90;;;;;;5024835;28;20467;-62
2022/06/07 08:21:20;;;;;;;6.27;3.10;;;18.10;99.90;;;;;;5028398;28;20487;-61
2022/06/07 08:23:50;;;;;;;4.70;2.90;;;18.10;99.90;;;;;;5024389;28;20483;-63
2022/06/07 08:26:20;;;;;;;3.63;2.70;;;18.30;99.90;;;;;;5014910;28;20755;-62
2022/06/07 08:28:47;;;;;;;5.37;2.83;;;18.50;99.90;;;;;;5036259;28;20768;-62
2022/06/07 08:31:16;;;;;;;2.53;2.33;;;18.70;99.90;;;;;;5034971;28;20499;-62
2022/06/07 08:39:21;;;;;;;3.93;2.33;;;18.60;99.90;;;;;;5036260;28;20489;-62
2022/06/07 08:41:53;;;;;;;2.67;2.47;;;18.80;99.90;;;;;;5025480;28;20468;-62
2022/06/07 08:44:26;;;;;;;3.47;2.87;;;18.80;99.90;;;;;;5031810;28;20540;-62
2022/06/07 08:46:56;;;;;;;2.40;2.20;;;18.70;99.90;;;;;;5015513;28;20472;-62
2022/06/07 08:49:27;;;;;;;3.57;2.80;;;18.40;99.90;;;;;;5034629;28;20459;-61
2022/06/07 08:52:00;;;;;;;4.63;2.70;;;18.30;99.90;;;;;;5029147;28;20460;-62
2022/06/07 08:54:31;;;;;;;2.67;2.20;;;18.20;99.90;;;;;;5030982;28;20547;-61
2022/06/07 08:57:12;;;;;;;9.00;2.80;;;18.10;99.90;;;;;;5036345;28;20546;-62
2022/06/07 08:59:46;;;;;;;3.10;2.43;;;17.90;99.90;;;;;;5038192;28;20736;-61
2022/06/07 09:02:26;;;;;;;2.50;2.30;;;17.70;99.90;;;;;;5037128;28;20474;-62
2022/06/07 09:04:53;;;;;;;3.40;2.67;;;17.80;99.90;;;;;;5036237;28;20910;-62
2022/06/07 09:07:21;;;;;;;3.97;3.10;;;17.70;99.90;;;;;;5037533;28;20520;-63
2022/06/07 09:12:40;;;;;;;3.23;2.93;;;17.80;99.90;;;;;;5025322;28;20533;-62
2022/06/07 09:15:12;;;;;;;2.63;2.43;;;18.10;99.90;;;;;;5034062;28;20498;-62
2022/06/07 09:17:41;;;;;;;3.03;2.70;;;18.50;99.90;;;;;;5023057;28;20529;-63
2022/06/07 09:20:15;;;;;;;3.53;2.73;;;18.80;99.90;;;;;;5036298;28;20743;-63
2022/06/07 09:22:53;;;;;;;3.70;3.17;;;18.90;99.90;;;;;;5035489;28;20462;-62
2022/06/07 09:25:34;;;;;;;4.13;2.87;;;19.00;99.90;;;;;;5036362;28;20459;-63
2022/06/07 09:28:13;;;;;;;3.90;2.33;;;19.10;99.90;;;;;;5022418;28;20946;-62
2022/06/07 09:30:45;;;;;;;4.50;2.80;;;19.40;99.90;;;;;;5025697;28;20464;-63
2022/06/07 09:33:25;;;;;;;4.00;2.97;;;19.40;99.90;;;;;;5029460;28;20463;-64
2022/06/07 09:35:55;;;;;;;2.70;2.50;;;19.70;99.90;;;;;;5034048;28;20550;-62
2022/06/07 09:38:31;;;;;;;3.83;2.43;;;19.90;99.90;;;;;;5031689;28;20945;-62
2022/06/07 09:44:07;;;;;;;3.40;2.97;;;20.50;99.90;;;;;;5002790;28;20506;-62
2022/06/07 09:46:36;;;;;;;3.77;3.23;;;20.70;99.90;;;;;;5033335;28;20963;-64
2022/06/07 09:49:06;;;;;;;2.93;2.50;;;20.80;99.90;;;;;;5016093;28;20446;-62
2022/06/07 09:51:42;;;;;;;2.73;2.13;;;21.60;99.90;;;;;;5020970;28;20459;-62
2022/06/07 09:54:19;;;;;;;2.80;2.60;;;22.20;99.90;;;;;;5007693;28;20762;-63
2022/06/07 09:57:00;;;;;;;2.97;2.40;;;22.90;99.90;;;;;;5034849;28;20470;-63
2022/06/07 09:59:44;;;;;;;6.13;2.60;;;22.90;99.90;;;;;;5019194;28;20482;-64
2022/06/07 10:02:27;;;;;;;4.23;3.10;;;22.50;99.90;;;;;;5019956;28;20495;-64
2022/06/07 10:05:01;;;;;;;3.23;2.57;;;22.10;99.90;;;;;;5031467;28;20458;-64
2022/06/07 10:07:36;;;;;;;5.20;2.67;;;21.90;99.90;;;;;;5033386;28;22043;-61
2022/06/07 10:10:10;;;;;;;2.93;2.47;;;22.20;99.90;;;;;;5032966;28;20489;-63
2022/06/07 10:12:47;;;;;;;3.80;2.80;;;22.50;99.90;;;;;;5027442;28;20467;-64
2022/06/07 10:15:29;;;;;;;3.63;2.70;;;22.00;99.90;;;;;;5035980;28;20481;-62
2022/06/07 10:18:26;;;;;;;2.33;2.20;;;21.90;99.90;;;;;;5021510;28;20774;-62
2022/06/07 10:21:30;;;;;;;2.57;2.33;;;22.10;99.90;;;;;;5017298;28;20495;-62
2022/06/07 10:24:14;;;;;;;2.60;2.40;;;21.90;99.90;;;;;;5028900;28;20808;-62
2022/06/07 10:26:53;;;;;;;3.20;2.63;;;22.30;99.90;;;;;;5034030;28;20862;-63
2022/06/07 10:29:40;;;;;;;3.00;2.40;;;22.80;99.90;;;;;;5036516;28;20737;-63
2022/06/07 10:32:22;;;;;;;5.60;2.77;;;22.90;99.90;;;;;;5032577;28;20585;-63
2022/06/07 10:34:55;;;;;;;5.30;2.67;;;22.90;99.90;;;;;;5027747;28;20861;-63
2022/06/07 10:37:33;;;;;;;2.90;2.23;;;22.90;99.90;;;;;;5016758;28;20434;-62
2022/06/07 10:40:11;;;;;;;2.60;2.40;;;23.30;99.90;;;;;;5016707;28;20467;-64
2022/06/07 10:42:45;;;;;;;3.30;2.37;;;23.50;99.90;;;;;;5019525;28;20882;-63
2022/06/07 10:45:19;;;;;;;3.57;3.27;;;23.10;99.90;;;;;;5031123;28;20472;-63
2022/06/07 10:47:57;;;;;;;4.10;2.70;;;23.00;99.90;;;;;;5036720;28;20467;-60
2022/06/07 10:50:28;;;;;;;3.07;2.60;;;22.70;99.90;;;;;;5035689;28;20519;-59
2022/06/07 10:53:06;;;;;;;3.40;2.33;;;22.50;99.90;;;;;;5020749;28;20482;-62
2022/06/07 10:55:38;;;;;;;3.10;2.40;;;22.00;99.90;;;;;;5026093;28;20526;-62
2022/06/07 10:58:28;;;;;;;2.67;2.30;;;22.40;99.90;;;;;;5028116;28;20471;-62
2022/06/07 11:01:04;;;;;;;4.43;2.50;;;23.10;99.90;;;;;;5037857;28;20590;-61
2022/06/07 11:03:57;;;;;;;3.90;2.53;;;23.90;99.90;;;;;;5032392;28;20498;-64
2022/06/07 11:09:32;;;;;;;3.30;2.20;;;24.70;99.90;;;;;;5039930;28;20958;-62
2022/06/07 11:12:04;;;;;;;6.87;2.37;;;24.10;99.90;;;;;;5033719;28;20448;-61
2022/06/07 11:14:57;;;;;;;4.60;2.57;;;23.80;99.90;;;;;;5022923;28;20459;-61
2022/06/07 11:17:33;;;;;;;4.47;2.57;;;23.70;99.90;;;;;;5031017;28;20463;-61
2022/06/07 11:20:13;;;;;;;3.60;3.03;;;24.20;99.90;;;;;;5039627;28;20876;-61
2022/06/07 11:22:55;;;;;;;5.10;3.20;;;24.00;99.90;;;;;;5031374;28;20456;-62
2022/06/07 11:25:33;;;;;;;6.10;3.10;;;23.60;99.90;;;;;;5029928;28;20429;-62
2022/06/07 11:28:06;;;;;;;2.70;2.50;;;23.40;99.90;;;;;;5031465;28;20488;-61
2022/06/07 11:30:53;;;;;;;3.23;2.90;;;23.00;99.90;;;;;;5035613;28;20468;-61
2022/06/07 11:33:38;;;;;;;4.10;3.10;;;22.30;99.90;;;;;;5019448;28;20471;-60
2022/06/07 11:36:30;;;;;;;3.33;3.00;;;21.30;99.90;;;;;;5021270;28;20471;-61
2022/06/07 11:39:32;;;;;;;3.73;2.73;;;21.00;99.90;;;;;;5024423;28;20438;-63
2022/06/07 11:42:29;;;;;;;3.60;3.00;;;21.20;99.90;;;;;;5013155;28;20523;-60
2022/06/07 11:45:19;;;;;;;4.27;3.50;;;21.00;99.90;;;;;;5026408;28;20467;-63
2022/06/07 11:48:10;;;;;;;4.90;2.80;;;21.00;99.90;;;;;;5017694;28;20962;-62
2022/06/07 11:51:13;;;;;;;5.67;2.77;;;21.20;99.90;;;;;;5033721;28;21063;-61
2022/06/07 11:53:54;;;;;;;6.80;3.30;;;20.90;99.90;;;;;;5032371;28;20544;-61
2022/06/07 11:56:29;;;;;;;3.93;3.53;;;20.70;99.90;;;;;;5037644;28;20475;-64
2022/06/07 11:59:02;;;;;;;6.70;3.00;;;20.80;99.90;;;;;;5027290;28;20553;-65
2022/06/07 12:01:45;;;;;;;2.87;2.57;;;21.00;99.90;;;;;;5016983;28;20502;-63
2022/06/07 12:04:34;;;;;;;4.90;2.70;;;21.30;99.90;;;;;;5015549;28;20473;-65
2022/06/07 12:07:10;;;;;;;3.10;2.50;;;21.20;99.90;;;;;;5016877;28;20538;-65
2022/06/07 12:09:40;;;;;;;5.33;2.50;;;21.10;99.90;;;;;;5014008;28;20471;-61
2022/06/07 12:12:23;;;;;;;3.77;2.67;;;20.70;99.90;;;;;;5027855;28;20562;-65
2022/06/07 12:14:55;;;;;;;3.13;2.83;;;20.40;99.90;;;;;;5029964;28;20479;-65
2022/06/07 12:17:29;;;;;;;5.80;3.80;;;20.40;99.90;;;;;;5031092;28;20784;-63
2022/06/07 12:20:00;;;;;;;3.13;2.80;;;20.40;99.90;;;;;;5024343;28;20472;-65
2022/06/07 12:22:40;;;;;;;3.97;2.73;;;20.50;99.90;;;;;;5017844;28;20840;-65
2022/06/07 12:25:18;;;;;;;3.83;2.53;;;20.60;99.90;;;;;;5027792;28;20874;-64
2022/06/07 12:27:48;;;;;;;4.53;2.70;;;20.40;99.90;;;;;;5035581;28;20942;-64
2022/06/07 12:30:25;;;;;;;7.97;3.13;;;20.20;99.90;;;;;;5023976;28;20975;-62
2022/06/07 12:32:54;;;;;;;4.67;2.47;;;20.00;99.90;;;;;;5008087;28;20467;-63
2022/06/07 12:35:23;;;;;;;4.47;3.10;;;19.80;99.90;;;;;;5033933;28;20606;-63
2022/06/07 12:37:57;;;;;;;3.77;3.20;;;19.70;99.90;;;;;;5017192;28;20582;-59
2022/06/07 12:40:31;;;;;;;4.50;3.00;;;19.60;99.90;;;;;;5019052;28;20782;-60
2022/06/07 12:42:59;;;;;;;5.50;3.40;;;19.40;99.90;;;;;;5035450;28;20491;-60
2022/06/07 12:45:32;;;;;;;4.23;3.70;;;19.20;99.90;;;;;;5035709;28;20462;-62
2022/06/07 12:48:01;;;;;;;6.43;3.80;;;19.00;99.90;;;;;;5018143;28;20810;-62
2022/06/07 12:50:31;;;;;;;5.93;4.57;;;18.60;99.90;;;;;;5033963;28;20474;-61
2022/06/07 12:53:00;;;;;;;10.83;4.20;;;18.40;99.90;;;;;;5035590;28;20455;-62
2022/06/07 12:55:36;;;;;;;4.87;4.37;;;18.20;99.90;;;;;;5035901;28;20513;-61
2022/06/07 12:58:22;;;;;;;5.80;5.10;;;17.90;99.90;;;;;;5024604;28;20528;-61
2022/06/07 13:00:55;;;;;;;5.43;4.93;;;17.70;99.90;;;;;;5032111;28;20483;-59
2022/06/07 13:03:31;;;;;;;6.03;5.03;;;17.80;99.90;;;;;;5023255;28;20522;-57
2022/06/07 13:06:09;;;;;;;5.40;4.90;;;18.00;99.90;;;;;;5028182;28;20803;-55
2022/06/07 13:08:39;;;;;;;5.50;5.00;;;18.10;99.90;;;;;;5027476;28;20964;-56
2022/06/07 13:11:15;;;;;;;5.87;5.37;;;18.20;99.90;;;;;;5031026;28;20482;-56
2022/06/07 13:13:44;;;;;;;8.10;5.70;;;18.40;99.90;;;;;;5015659;28;20483;-57
2022/06/07 13:16:48;;;;;;;6.30;5.70;;;18.40;99.90;;;;;;5031865;28;20532;-56
2022/06/07 13:19:29;;;;;;;6.50;5.83;;;18.60;99.90;;;;;;5024740;28;20499;-57
2022/06/07 13:22:04;;;;;;;7.03;6.37;;;18.40;99.90;;;;;;5037461;28;20465;-54
2022/06/07 13:24:42;;;;;;;9.53;5.60;;;18.30;99.90;;;;;;5034253;28;20466;-57
2022/06/07 13:27:37;;;;;;;7.80;6.10;;;18.20;99.90;;;;;;5008064;28;20463;-59
2022/06/07 13:30:12;;;;;;;8.73;6.37;;;18.20;1.00;;;;;;5031456;28;20494;-56
2022/06/07 13:32:39;;;;;;;7.23;6.40;;;18.00;99.90;;;;;;5037241;28;20425;-59
2022/06/07 13:35:22;;;;;;;7.67;6.97;;;18.00;1.00;;;;;;5030768;28;20496;-61
2022/06/07 13:38:01;;;;;;;8.17;7.43;;;18.00;1.00;;;;;;5030272;28;20465;-62
2022/06/07 13:40:32;;;;;;;7.53;6.80;;;18.20;1.00;;;;;;5023132;28;20464;-64
2022/06/07 13:43:16;;;;;;;8.67;7.50;;;18.10;1.00;;;;;;5031852;28;20477;-63